Time;durP1;ratioP1;P1;durP2;ratioP2;P2;SDS_P1;SDS_P2;PMS_P1;PMS_P2;Temp;Humidity;BMP_temperature;BMP_pressure;BME280_temperature;BME280_humidity;BME280_pressure;Samples;Min_cycle;Max_cycle;Signal;HPM_P1;HPM_P2
2023/11/10 00:00:45;;;;;;;2.63;1.30;;;21.60;58.60;;;;;;5032906;28;20457;-70
2023/11/10 00:03:12;;;;;;;1.67;1.20;;;21.50;58.50;;;;;;5032913;28;20413;-70
2023/11/10 00:05:37;;;;;;;1.70;1.20;;;21.50;58.50;;;;;;5032759;28;20427;-70
2023/11/10 00:08:03;;;;;;;2.20;1.60;;;21.60;58.50;;;;;;5032502;28;20406;-70
2023/11/10 00:10:29;;;;;;;2.53;1.80;;;21.50;58.50;;;;;;5040295;28;20258;-70
2023/11/10 00:12:55;;;;;;;2.10;1.27;;;21.50;58.50;;;;;;5052353;28;20182;-70
2023/11/10 00:15:24;;;;;;;2.27;1.53;;;21.50;58.40;;;;;;5051946;28;20195;-70
2023/11/10 00:17:50;;;;;;;1.70;1.30;;;21.50;58.50;;;;;;5051640;28;20828;-71
2023/11/10 00:20:17;;;;;;;1.60;1.00;;;21.50;58.50;;;;;;5051655;28;20453;-70
2023/11/10 00:22:42;;;;;;;1.40;1.00;;;21.50;58.50;;;;;;5052410;28;20402;-70
2023/11/10 00:25:08;;;;;;;2.80;1.40;;;21.60;58.50;;;;;;5052342;28;20542;-68
2023/11/10 00:27:35;;;;;;;2.07;1.20;;;21.50;58.50;;;;;;5052423;28;20171;-70
2023/11/10 00:30:00;;;;;;;1.50;1.20;;;21.60;58.50;;;;;;5051653;28;20405;-71
2023/11/10 00:32:26;;;;;;;2.00;1.40;;;21.50;58.50;;;;;;5052347;28;20424;-70
2023/11/10 00:34:52;;;;;;;1.40;1.00;;;21.50;58.40;;;;;;5052234;28;20201;-70
2023/11/10 00:37:17;;;;;;;1.37;1.17;;;21.50;58.50;;;;;;5052401;28;20226;-70
2023/11/10 00:39:43;;;;;;;2.10;1.30;;;21.50;58.50;;;;;;5052288;28;20202;-70
2023/11/10 00:42:09;;;;;;;1.30;1.20;;;21.50;58.50;;;;;;5052493;28;20175;-71
2023/11/10 00:44:35;;;;;;;1.20;1.00;;;21.50;58.50;;;;;;5052274;28;20826;-70
2023/11/10 00:47:00;;;;;;;1.67;1.27;;;21.50;58.50;;;;;;5052045;28;20669;-71
2023/11/10 00:49:26;;;;;;;1.87;1.20;;;21.50;58.50;;;;;;5052037;28;20250;-70
2023/11/10 00:51:52;;;;;;;2.90;1.40;;;21.50;58.50;;;;;;5052078;28;20167;-70
2023/11/10 00:54:18;;;;;;;2.10;1.17;;;21.50;58.40;;;;;;5052354;28;20410;-71
2023/11/10 00:56:44;;;;;;;1.37;1.20;;;21.50;58.40;;;;;;5051829;28;20337;-70
2023/11/10 00:59:10;;;;;;;1.97;1.33;;;21.50;58.40;;;;;;5052030;28;20178;-71
2023/11/10 01:01:36;;;;;;;2.27;1.30;;;21.50;58.40;;;;;;5051879;28;20959;-71
2023/11/10 01:04:03;;;;;;;1.83;1.73;;;21.50;58.50;;;;;;5050353;28;20418;-70
2023/11/10 01:06:28;;;;;;;2.83;1.23;;;21.50;58.40;;;;;;5051525;28;20503;-71
2023/11/10 01:08:57;;;;;;;1.70;1.10;;;21.50;58.40;;;;;;5051681;28;20406;-71
2023/11/10 01:11:23;;;;;;;1.30;0.93;;;21.50;58.40;;;;;;5050421;28;20175;-71
2023/11/10 01:13:49;;;;;;;1.40;1.10;;;21.50;58.40;;;;;;5051898;28;20815;-70
2023/11/10 01:16:15;;;;;;;2.00;1.70;;;21.50;58.40;;;;;;5051625;28;20486;-70
2023/11/10 01:18:41;;;;;;;1.40;1.17;;;21.50;58.40;;;;;;5051388;28;20191;-70
2023/11/10 01:21:07;;;;;;;1.67;1.10;;;21.50;58.40;;;;;;5049944;28;21060;-70
2023/11/10 01:23:33;;;;;;;1.20;1.00;;;21.50;58.40;;;;;;5051630;28;20175;-71
2023/11/10 01:25:59;;;;;;;1.80;1.10;;;21.50;58.50;;;;;;5051280;28;20417;-71
2023/11/10 01:28:25;;;;;;;1.20;1.00;;;21.50;58.40;;;;;;5051254;28;20167;-70
2023/11/10 01:30:52;;;;;;;1.63;1.10;;;21.50;58.40;;;;;;5051551;28;20625;-71
2023/11/10 01:33:18;;;;;;;1.77;1.37;;;21.50;58.40;;;;;;5051263;28;20459;-71
2023/11/10 01:35:44;;;;;;;1.20;1.00;;;21.50;58.40;;;;;;5051102;28;20836;-70
2023/11/10 01:38:10;;;;;;;1.97;1.10;;;21.50;58.40;;;;;;5051083;28;20406;-71
2023/11/10 01:40:43;;;;;;;1.33;1.20;;;21.50;58.40;;;;;;5050822;28;20234;-71
2023/11/10 01:43:10;;;;;;;1.27;1.03;;;21.50;59.00;;;;;;5051088;28;20178;-71
2023/11/10 01:45:36;;;;;;;1.60;1.10;;;21.50;58.40;;;;;;5050913;28;20424;-71
2023/11/10 01:48:03;;;;;;;1.50;0.90;;;21.50;58.40;;;;;;5050865;28;20471;-70
2023/11/10 01:50:31;;;;;;;1.73;1.10;;;21.40;58.40;;;;;;5051127;28;20417;-70
2023/11/10 01:52:58;;;;;;;1.70;1.13;;;21.50;58.40;;;;;;5050901;28;20973;-70
2023/11/10 01:55:23;;;;;;;2.37;1.33;;;21.50;58.40;;;;;;5050492;28;20425;-69
2023/11/10 01:57:49;;;;;;;1.60;1.27;;;21.50;58.40;;;;;;5042390;28;20422;-70
2023/11/10 02:00:19;;;;;;;2.10;1.30;;;21.50;58.40;;;;;;5050088;28;20202;-71
2023/11/10 02:02:47;;;;;;;2.27;1.40;;;21.50;58.40;;;;;;5048894;28;20421;-70
2023/11/10 02:05:13;;;;;;;2.30;1.30;;;21.40;58.30;;;;;;5049973;28;20397;-70
2023/11/10 02:07:39;;;;;;;1.73;1.20;;;21.40;58.30;;;;;;5050497;28;20984;-71
2023/11/10 02:10:05;;;;;;;2.20;1.20;;;21.40;58.30;;;;;;5050185;28;20402;-70
2023/11/10 02:12:30;;;;;;;1.50;1.20;;;21.40;58.30;;;;;;5050528;28;20959;-71
2023/11/10 02:14:56;;;;;;;1.50;1.17;;;21.50;58.30;;;;;;5050660;28;20418;-70
2023/11/10 02:17:22;;;;;;;1.37;1.10;;;21.40;58.20;;;;;;5050180;28;20183;-70
2023/11/10 02:19:47;;;;;;;1.70;1.20;;;21.40;58.20;;;;;;5050001;28;20198;-70
2023/11/10 02:22:13;;;;;;;2.33;1.10;;;21.40;58.20;;;;;;5050279;28;20220;-70
2023/11/10 02:24:43;;;;;;;1.80;1.30;;;21.40;58.20;;;;;;5050537;28;20295;-71
2023/11/10 02:27:09;;;;;;;1.97;1.47;;;21.40;58.20;;;;;;5050359;28;20432;-70
2023/11/10 02:29:39;;;;;;;3.70;1.00;;;21.40;58.20;;;;;;5050312;28;20792;-70
2023/11/10 02:32:05;;;;;;;1.17;1.00;;;21.40;58.20;;;;;;5050517;28;20270;-70
2023/11/10 02:34:31;;;;;;;2.40;1.33;;;21.40;58.20;;;;;;5050183;28;20409;-70
2023/11/10 02:36:57;;;;;;;1.43;1.00;;;21.40;58.20;;;;;;5050156;28;20516;-70
2023/11/10 02:39:23;;;;;;;1.77;1.30;;;21.40;58.30;;;;;;5049986;28;20832;-70
2023/11/10 02:41:52;;;;;;;1.60;1.30;;;21.40;58.30;;;;;;5050182;28;20488;-70
2023/11/10 02:44:18;;;;;;;1.40;1.20;;;21.40;58.20;;;;;;5050221;28;20240;-70
2023/11/10 02:46:43;;;;;;;2.03;1.43;;;21.40;58.20;;;;;;5050036;28;21009;-71
2023/11/10 02:49:09;;;;;;;1.10;0.80;;;21.40;58.20;;;;;;5050148;28;20405;-70
2023/11/10 02:51:34;;;;;;;1.33;1.00;;;21.40;58.20;;;;;;5049899;28;20189;-70
2023/11/10 02:54:00;;;;;;;1.40;1.10;;;21.40;58.20;;;;;;5053081;28;20249;-71
2023/11/10 02:56:26;;;;;;;2.63;1.30;;;21.40;58.20;;;;;;5054133;28;20281;-70
2023/11/10 02:58:51;;;;;;;1.57;1.00;;;21.40;58.20;;;;;;5054143;28;20182;-70
2023/11/10 03:01:25;;;;;;;1.70;1.13;;;21.40;58.20;;;;;;5053940;28;20669;-70
2023/11/10 03:03:51;;;;;;;1.37;1.00;;;21.40;58.30;;;;;;5054038;28;20171;-70
2023/11/10 03:06:17;;;;;;;1.60;1.10;;;21.30;58.20;;;;;;5053673;28;20452;-70
2023/11/10 03:08:43;;;;;;;1.67;1.20;;;21.40;58.30;;;;;;5053817;28;20174;-70
2023/11/10 03:11:08;;;;;;;1.77;1.00;;;21.40;58.30;;;;;;5053966;28;20202;-70
2023/11/10 03:13:34;;;;;;;1.20;1.10;;;21.40;58.30;;;;;;5053912;28;20504;-69
2023/11/10 03:16:00;;;;;;;1.43;1.20;;;21.40;58.30;;;;;;5053922;28;20226;-70
2023/11/10 03:18:25;;;;;;;2.47;1.10;;;21.40;58.30;;;;;;5053724;28;20187;-70
2023/11/10 03:20:51;;;;;;;1.37;0.93;;;21.40;58.30;;;;;;5053597;28;20195;-70
2023/11/10 03:23:16;;;;;;;1.20;1.00;;;21.40;58.30;;;;;;5053819;28;20167;-70
2023/11/10 03:25:42;;;;;;;2.20;1.10;;;21.40;58.30;;;;;;5053494;28;20191;-70
2023/11/10 03:28:08;;;;;;;1.40;1.17;;;21.40;58.30;;;;;;5053698;28;20178;-69
2023/11/10 03:30:33;;;;;;;2.37;1.07;;;21.40;58.30;;;;;;5053462;28;20209;-71
2023/11/10 03:32:59;;;;;;;1.37;1.00;;;21.40;58.30;;;;;;5053636;28;20183;-70
2023/11/10 03:35:24;;;;;;;1.10;0.90;;;21.40;58.30;;;;;;5053396;28;20191;-70
2023/11/10 03:37:50;;;;;;;1.33;1.17;;;21.40;58.30;;;;;;5053458;28;20175;-70
2023/11/10 03:40:16;;;;;;;1.93;1.37;;;21.40;58.30;;;;;;5053378;28;20187;-70
2023/11/10 03:42:42;;;;;;;1.30;1.10;;;21.40;58.30;;;;;;5053404;28;20167;-70
2023/11/10 03:45:09;;;;;;;1.10;0.83;;;21.40;58.30;;;;;;5053472;28;20546;-70
2023/11/10 03:47:34;;;;;;;1.30;1.10;;;21.40;58.30;;;;;;5053630;28;20475;-70
2023/11/10 03:50:00;;;;;;;1.50;1.40;;;21.40;58.30;;;;;;5053263;28;20409;-71
2023/11/10 03:52:25;;;;;;;1.60;1.10;;;21.40;58.30;;;;;;5053305;28;20939;-70
2023/11/10 03:54:51;;;;;;;1.60;1.10;;;21.40;58.30;;;;;;5053434;28;20217;-71
2023/11/10 03:57:17;;;;;;;1.63;1.00;;;21.40;58.30;;;;;;5052976;28;20674;-70
2023/11/10 03:59:42;;;;;;;1.70;1.20;;;21.40;58.30;;;;;;5053044;28;20281;-71
2023/11/10 04:02:09;;;;;;;1.23;1.03;;;21.40;58.30;;;;;;5053122;28;20210;-70
2023/11/10 04:04:35;;;;;;;1.43;1.13;;;21.40;58.30;;;;;;5051796;28;20278;-70
2023/11/10 04:07:03;;;;;;;1.30;1.07;;;21.30;58.20;;;;;;5052781;28;20429;-70
2023/11/10 04:09:35;;;;;;;1.00;0.77;;;21.40;58.30;;;;;;5053131;28;20452;-70
2023/11/10 04:12:02;;;;;;;1.63;1.00;;;21.30;58.20;;;;;;5052799;28;20444;-70
2023/11/10 04:14:31;;;;;;;1.37;1.17;;;21.40;58.20;;;;;;5053058;28;20402;-70
2023/11/10 04:16:56;;;;;;;1.13;1.00;;;21.30;58.20;;;;;;5052717;28;20451;-70
2023/11/10 04:19:22;;;;;;;1.23;1.00;;;21.30;58.20;;;;;;5053192;28;20402;-70
2023/11/10 04:21:48;;;;;;;1.60;1.10;;;21.40;58.20;;;;;;5052743;28;20167;-70
2023/11/10 04:24:14;;;;;;;1.50;1.10;;;21.40;58.30;;;;;;5052803;28;20646;-70
2023/11/10 04:26:40;;;;;;;1.20;1.00;;;21.40;58.30;;;;;;5052721;28;20456;-71
2023/11/10 04:29:08;;;;;;;1.93;1.00;;;21.40;58.30;;;;;;5052821;28;20967;-70
2023/11/10 04:31:35;;;;;;;1.10;0.80;;;21.30;58.20;;;;;;5052855;28;20187;-71
2023/11/10 04:34:00;;;;;;;2.10;1.30;;;21.40;58.30;;;;;;5052773;28;20405;-70
2023/11/10 04:36:26;;;;;;;2.17;1.10;;;21.30;58.20;;;;;;5053249;28;20440;-70
2023/11/10 04:38:52;;;;;;;1.93;1.07;;;21.40;58.30;;;;;;5052934;28;20220;-70
2023/11/10 04:41:21;;;;;;;2.50;1.00;;;21.40;58.20;;;;;;5052375;28;20285;-70
2023/11/10 04:43:47;;;;;;;1.47;1.10;;;21.40;58.30;;;;;;5052988;28;20174;-70
2023/11/10 04:46:13;;;;;;;1.87;1.10;;;21.30;58.20;;;;;;5040829;28;21228;-70
2023/11/10 04:48:38;;;;;;;1.17;0.90;;;21.30;58.20;;;;;;5052190;28;20183;-71
2023/11/10 04:51:04;;;;;;;1.37;0.90;;;21.30;58.20;;;;;;5050491;28;20174;-71
2023/11/10 04:53:30;;;;;;;1.20;1.07;;;21.40;58.20;;;;;;5052492;28;20210;-69
2023/11/10 04:55:55;;;;;;;1.13;1.00;;;21.30;58.20;;;;;;5052111;28;20691;-70
2023/11/10 04:58:22;;;;;;;1.67;0.83;;;21.30;58.10;;;;;;5052153;28;20182;-71
2023/11/10 05:00:47;;;;;;;1.30;1.10;;;21.30;58.00;;;;;;5052378;28;20685;-70
2023/11/10 05:03:15;;;;;;;1.50;1.10;;;21.30;58.00;;;;;;5052295;28;20409;-70
2023/11/10 05:05:40;;;;;;;1.10;0.90;;;21.30;58.00;;;;;;5052236;28;20179;-70
2023/11/10 05:08:06;;;;;;;1.17;0.90;;;21.30;58.00;;;;;;5052222;28;20444;-70
2023/11/10 05:10:32;;;;;;;1.43;1.30;;;21.30;58.00;;;;;;5051988;28;20171;-70
2023/11/10 05:12:57;;;;;;;1.40;0.90;;;21.30;58.00;;;;;;5052090;28;20167;-71
2023/11/10 05:15:23;;;;;;;1.10;0.90;;;21.30;58.00;;;;;;5051439;28;20205;-70
2023/11/10 05:17:49;;;;;;;1.00;0.70;;;21.30;58.00;;;;;;5051992;28;20739;-71
2023/11/10 05:20:16;;;;;;;2.03;1.10;;;21.30;58.00;;;;;;5052066;28;20198;-70
2023/11/10 05:22:43;;;;;;;1.20;0.90;;;21.30;58.00;;;;;;5051822;28;20873;-70
2023/11/10 05:25:12;;;;;;;1.33;0.90;;;21.30;58.00;;;;;;5051724;28;20405;-70
2023/11/10 05:27:39;;;;;;;1.00;0.80;;;21.30;58.10;;;;;;5051813;28;20478;-72
2023/11/10 05:30:07;;;;;;;1.50;1.20;;;21.30;58.10;;;;;;5051544;28;20413;-69
2023/11/10 05:32:33;;;;;;;1.10;0.90;;;21.30;58.10;;;;;;5051819;28;20933;-70
2023/11/10 05:34:59;;;;;;;1.40;1.00;;;21.30;58.20;;;;;;5031773;28;20840;-71
2023/11/10 05:37:27;;;;;;;1.70;1.20;;;21.30;58.20;;;;;;5032188;28;20446;-69
2023/11/10 05:39:53;;;;;;;1.20;0.87;;;21.30;58.20;;;;;;5031170;28;20968;-71
2023/11/10 05:42:21;;;;;;;2.40;1.20;;;21.30;58.20;;;;;;5042069;28;20436;-69
2023/11/10 05:44:48;;;;;;;1.67;1.00;;;21.30;58.20;;;;;;5038603;28;20172;-70
2023/11/10 05:47:14;;;;;;;1.23;0.97;;;21.30;58.20;;;;;;5030251;28;20422;-71
2023/11/10 05:49:41;;;;;;;2.70;1.00;;;21.30;58.20;;;;;;5031444;28;20406;-71
2023/11/10 05:52:07;;;;;;;5.43;1.10;;;21.30;58.20;;;;;;5031387;28;20414;-70
2023/11/10 05:54:32;;;;;;;1.73;1.03;;;21.30;58.10;;;;;;5031271;28;20410;-70
2023/11/10 05:56:58;;;;;;;1.40;1.00;;;21.30;58.10;;;;;;5031219;28;20654;-71
2023/11/10 05:59:25;;;;;;;2.03;1.20;;;21.30;58.00;;;;;;5031115;28;20172;-71
2023/11/10 06:01:51;;;;;;;1.50;1.10;;;21.30;58.00;;;;;;5031135;28;20179;-70
2023/11/10 06:04:16;;;;;;;1.90;1.20;;;21.30;58.10;;;;;;5031277;28;20394;-71
2023/11/10 06:06:43;;;;;;;1.60;1.10;;;21.30;58.00;;;;;;5031261;28;20943;-69
2023/11/10 06:09:13;;;;;;;1.00;0.80;;;21.30;58.00;;;;;;5030937;28;20180;-70
2023/11/10 06:11:39;;;;;;;3.43;1.10;;;21.30;58.00;;;;;;5031095;28;20418;-69
2023/11/10 06:14:05;;;;;;;1.30;1.00;;;21.30;58.10;;;;;;5030792;28;20429;-69
2023/11/10 06:16:32;;;;;;;1.40;1.10;;;21.30;58.60;;;;;;5030766;28;20195;-70
2023/11/10 06:18:58;;;;;;;1.27;0.97;;;21.30;58.00;;;;;;5030935;28;20434;-69
2023/11/10 06:21:24;;;;;;;1.83;1.20;;;21.30;58.00;;;;;;5029414;28;20470;-69
2023/11/10 06:23:50;;;;;;;2.00;0.97;;;21.30;58.10;;;;;;5031044;28;20176;-68
2023/11/10 06:26:18;;;;;;;1.03;0.80;;;21.30;58.10;;;;;;5030790;28;20191;-68
2023/11/10 06:28:44;;;;;;;1.10;0.80;;;21.30;58.20;;;;;;5030154;28;20859;-69
2023/11/10 06:31:12;;;;;;;1.27;0.80;;;21.30;58.10;;;;;;5029499;28;20418;-69
2023/11/10 06:33:39;;;;;;;1.00;0.80;;;21.30;58.20;;;;;;5030814;28;20200;-70
2023/11/10 06:36:05;;;;;;;5.60;1.10;;;21.30;58.20;;;;;;5030623;28;20468;-68
2023/11/10 06:38:30;;;;;;;1.43;0.93;;;21.30;58.20;;;;;;5029194;28;20450;-69
2023/11/10 06:40:56;;;;;;;1.30;0.90;;;21.30;58.20;;;;;;5030855;28;20250;-68
2023/11/10 06:43:22;;;;;;;1.47;1.30;;;21.40;58.20;;;;;;5030818;28;20206;-69
2023/11/10 06:45:50;;;;;;;1.40;0.90;;;21.30;58.20;;;;;;5030870;28;20195;-68
2023/11/10 06:48:17;;;;;;;1.90;1.27;;;21.40;58.30;;;;;;5029505;28;20171;-68
2023/11/10 06:50:43;;;;;;;1.20;1.00;;;21.40;58.30;;;;;;5031012;28;20407;-68
2023/11/10 06:53:12;;;;;;;1.73;0.90;;;21.30;58.20;;;;;;5030796;28;20951;-69
2023/11/10 06:55:39;;;;;;;2.37;1.10;;;21.40;58.20;;;;;;5030683;28;20518;-68
2023/11/10 06:58:05;;;;;;;2.03;1.63;;;21.40;58.20;;;;;;5030521;28;20824;-69
2023/11/10 07:00:32;;;;;;;1.00;0.80;;;21.40;58.20;;;;;;5030435;28;20876;-68
2023/11/10 07:02:59;;;;;;;1.10;1.00;;;21.40;58.20;;;;;;5030340;28;20468;-70
2023/11/10 07:05:28;;;;;;;1.20;0.90;;;21.40;58.30;;;;;;5030552;28;20427;-69
2023/11/10 07:07:54;;;;;;;1.40;1.10;;;21.30;58.30;;;;;;5030485;28;20449;-69
2023/11/10 07:10:20;;;;;;;3.50;1.00;;;21.40;58.30;;;;;;5030335;28;20414;-68
2023/11/10 07:12:46;;;;;;;1.53;0.80;;;21.40;58.70;;;;;;5030497;28;21005;-69
2023/11/10 07:15:12;;;;;;;1.23;0.90;;;21.40;58.90;;;;;;5030440;28;20176;-68
2023/11/10 07:17:38;;;;;;;1.00;0.80;;;21.40;58.30;;;;;;5030252;28;20433;-68
2023/11/10 07:20:10;;;;;;;1.37;1.07;;;21.40;58.30;;;;;;5030330;28;20195;-68
2023/11/10 07:22:35;;;;;;;2.50;1.00;;;21.40;58.20;;;;;;5030917;28;20489;-69
2023/11/10 07:25:03;;;;;;;2.37;0.90;;;21.40;58.30;;;;;;5030167;28;20500;-69
2023/11/10 07:27:28;;;;;;;2.70;1.00;;;21.40;58.20;;;;;;5030287;28;20172;-68
2023/11/10 07:29:54;;;;;;;1.27;1.03;;;21.40;58.20;;;;;;5028984;28;20425;-68
2023/11/10 07:32:20;;;;;;;4.50;1.30;;;21.40;58.20;;;;;;5030661;28;20176;-68
2023/11/10 07:34:46;;;;;;;1.60;1.10;;;21.40;58.20;;;;;;5030110;28;20179;-70
2023/11/10 07:37:12;;;;;;;2.43;1.30;;;21.50;58.30;;;;;;5030355;28;20192;-68
2023/11/10 07:39:40;;;;;;;2.13;1.10;;;21.50;58.30;;;;;;5032435;28;20581;-68
2023/11/10 07:42:07;;;;;;;2.10;1.03;;;21.50;58.30;;;;;;5033937;28;20183;-69
2023/11/10 07:44:33;;;;;;;2.20;1.10;;;21.50;58.20;;;;;;5033959;28;20442;-68
2023/11/10 07:46:58;;;;;;;1.30;0.90;;;21.40;58.10;;;;;;5033906;28;20433;-69
2023/11/10 07:49:25;;;;;;;1.30;1.00;;;21.40;58.10;;;;;;5033987;28;20410;-68
2023/11/10 07:51:53;;;;;;;1.40;0.90;;;21.50;58.20;;;;;;5033701;28;20172;-68
2023/11/10 07:54:23;;;;;;;2.10;0.90;;;21.40;58.10;;;;;;5033441;28;20410;-69
2023/11/10 07:56:49;;;;;;;2.33;1.03;;;21.40;58.10;;;;;;5033879;28;20434;-69
2023/11/10 07:59:15;;;;;;;2.13;1.50;;;21.40;58.10;;;;;;5033699;28;20485;-68
2023/11/10 08:01:41;;;;;;;3.10;1.10;;;21.50;58.20;;;;;;5033773;28;20550;-68
2023/11/10 08:04:10;;;;;;;2.33;1.13;;;21.40;58.10;;;;;;5033584;28;20493;-69
2023/11/10 08:06:37;;;;;;;1.40;1.00;;;21.40;58.10;;;;;;5033379;28;20537;-68
2023/11/10 08:09:03;;;;;;;2.17;1.10;;;21.40;58.10;;;;;;5033285;28;20472;-68
2023/11/10 08:11:30;;;;;;;3.87;1.10;;;21.40;58.10;;;;;;5033548;28;20476;-69
2023/11/10 08:13:56;;;;;;;2.97;1.30;;;21.40;58.10;;;;;;5033327;28;20414;-68
2023/11/10 08:16:22;;;;;;;1.63;1.00;;;21.50;58.20;;;;;;5033275;28;20445;-69
2023/11/10 08:18:47;;;;;;;3.37;1.10;;;21.40;58.10;;;;;;5034740;28;20959;-68
2023/11/10 08:21:20;;;;;;;3.00;1.23;;;21.40;58.10;;;;;;5033074;28;20200;-69
2023/11/10 08:23:46;;;;;;;2.43;1.20;;;21.50;58.20;;;;;;5033330;28;20701;-69
2023/11/10 08:26:13;;;;;;;1.13;1.00;;;21.40;58.70;;;;;;5033209;28;20438;-68
2023/11/10 08:28:38;;;;;;;4.70;1.17;;;21.40;58.10;;;;;;5033225;28;20937;-69
2023/11/10 08:31:04;;;;;;;1.37;1.00;;;21.40;58.10;;;;;;5033286;28;20413;-68
2023/11/10 08:33:30;;;;;;;2.50;1.10;;;21.40;58.70;;;;;;5032860;28;20562;-69
2023/11/10 08:35:57;;;;;;;1.97;1.10;;;21.40;58.20;;;;;;5033057;28;20570;-67
2023/11/10 08:38:22;;;;;;;3.10;1.43;;;21.40;58.20;;;;;;5031696;28;20418;-68
2023/11/10 08:40:48;;;;;;;2.73;1.00;;;21.40;58.20;;;;;;5033043;28;20464;-68
2023/11/10 08:43:14;;;;;;;1.47;1.10;;;21.40;58.20;;;;;;5033310;28;20598;-69
2023/11/10 08:45:40;;;;;;;1.50;1.10;;;21.40;58.20;;;;;;5032634;28;20196;-69
2023/11/10 08:48:05;;;;;;;3.50;0.90;;;21.40;58.20;;;;;;5032764;28;20414;-68
2023/11/10 08:50:32;;;;;;;2.03;1.30;;;21.40;58.20;;;;;;5032227;28;20184;-68
2023/11/10 08:52:58;;;;;;;3.07;1.13;;;21.40;58.20;;;;;;5032707;28;20168;-69
2023/11/10 08:55:24;;;;;;;1.20;1.10;;;21.40;58.30;;;;;;5032452;28;20527;-69
2023/11/10 08:57:50;;;;;;;1.20;0.90;;;21.40;58.20;;;;;;5032677;28;20457;-68
2023/11/10 09:00:17;;;;;;;1.47;1.00;;;21.40;58.20;;;;;;5032814;28;20702;-69
2023/11/10 09:02:44;;;;;;;1.10;0.93;;;21.40;58.30;;;;;;5032678;28;20413;-69
2023/11/10 09:05:10;;;;;;;2.03;1.10;;;21.40;58.30;;;;;;5032559;28;20941;-68
2023/11/10 09:07:40;;;;;;;2.20;1.10;;;21.40;58.30;;;;;;5032306;28;20410;-68
2023/11/10 09:10:10;;;;;;;2.50;1.13;;;21.40;58.20;;;;;;5032232;28;21058;-68
2023/11/10 09:12:37;;;;;;;1.20;1.00;;;21.50;58.30;;;;;;5032683;28;20964;-67
2023/11/10 09:15:04;;;;;;;1.27;0.93;;;21.40;58.30;;;;;;5032604;28;20422;-69
2023/11/10 09:17:31;;;;;;;2.17;1.37;;;21.40;58.30;;;;;;5032159;28;20442;-69
2023/11/10 09:19:57;;;;;;;1.50;1.00;;;21.40;58.30;;;;;;5032369;28;20541;-69
2023/11/10 09:22:22;;;;;;;2.33;1.20;;;21.40;58.30;;;;;;5032338;28;20417;-68
2023/11/10 09:24:48;;;;;;;2.40;1.10;;;21.40;58.30;;;;;;5032178;28;20460;-70
2023/11/10 09:27:14;;;;;;;1.83;1.00;;;21.50;58.90;;;;;;5031909;28;20195;-68
2023/11/10 09:29:40;;;;;;;2.27;0.83;;;21.50;58.40;;;;;;5031618;28;20180;-69
2023/11/10 09:32:10;;;;;;;1.97;1.10;;;21.40;58.30;;;;;;5031500;28;20322;-69
2023/11/10 09:34:39;;;;;;;2.20;0.90;;;21.40;58.30;;;;;;5031695;28;20945;-69
2023/11/10 09:37:06;;;;;;;1.30;0.90;;;21.40;58.30;;;;;;5031696;28;20426;-70
2023/11/10 09:39:32;;;;;;;1.77;1.00;;;21.40;58.30;;;;;;5031711;28;20460;-70
2023/11/10 09:42:06;;;;;;;3.47;1.00;;;21.40;58.30;;;;;;5031553;28;20457;-70
2023/11/10 09:44:38;;;;;;;2.20;1.00;;;21.40;58.40;;;;;;5031320;28;20398;-70
2023/11/10 09:47:04;;;;;;;2.40;1.10;;;21.50;58.40;;;;;;5031492;28;20435;-70
2023/11/10 09:49:30;;;;;;;2.87;1.00;;;21.40;58.30;;;;;;5029880;28;20461;-70
2023/11/10 09:51:57;;;;;;;1.50;1.13;;;21.50;58.40;;;;;;5031314;28;20421;-70
2023/11/10 09:54:23;;;;;;;2.63;1.20;;;21.40;58.30;;;;;;5031403;28;20564;-69
2023/11/10 09:56:50;;;;;;;1.80;0.90;;;21.50;58.30;;;;;;5031301;28;20817;-69
2023/11/10 09:59:17;;;;;;;1.97;1.10;;;21.40;58.30;;;;;;5031222;28;20855;-70
2023/11/10 10:01:43;;;;;;;1.63;1.00;;;21.50;58.40;;;;;;5030733;28;20466;-70
2023/11/10 10:04:09;;;;;;;2.60;1.00;;;21.40;58.30;;;;;;5030680;28;20434;-69
2023/11/10 10:06:37;;;;;;;1.10;0.90;;;21.40;58.30;;;;;;5030967;28;21021;-70
2023/11/10 10:09:06;;;;;;;1.57;1.00;;;21.40;58.30;;;;;;5031078;28;20180;-67
2023/11/10 10:11:32;;;;;;;1.40;0.90;;;21.40;58.30;;;;;;5030777;28;20553;-69
2023/11/10 10:13:58;;;;;;;3.83;1.00;;;21.50;58.40;;;;;;5030895;28;20419;-70
2023/11/10 10:16:23;;;;;;;1.50;0.90;;;21.40;58.30;;;;;;5030890;28;20979;-70
2023/11/10 10:18:54;;;;;;;1.90;1.10;;;21.50;58.40;;;;;;5030683;28;20191;-70
2023/11/10 10:21:20;;;;;;;1.97;1.13;;;21.40;58.30;;;;;;5030687;28;20195;-68
2023/11/10 10:23:47;;;;;;;1.83;1.13;;;21.50;58.40;;;;;;5031018;28;20769;-70
2023/11/10 10:26:15;;;;;;;1.73;1.07;;;21.50;59.00;;;;;;5030910;28;20429;-71
2023/11/10 10:28:43;;;;;;;2.13;1.00;;;21.40;58.30;;;;;;5030844;28;20779;-70
2023/11/10 10:31:08;;;;;;;2.03;1.20;;;21.40;58.30;;;;;;5030542;28;21602;-70
2023/11/10 10:33:36;;;;;;;1.50;1.00;;;21.40;58.30;;;;;;5030523;28;20833;-68
2023/11/10 10:36:03;;;;;;;1.40;1.00;;;21.40;58.30;;;;;;5030719;28;20438;-70
2023/11/10 10:38:32;;;;;;;2.00;0.90;;;21.40;58.30;;;;;;5030439;28;20191;-70
2023/11/10 10:40:59;;;;;;;1.17;0.77;;;21.50;58.30;;;;;;5030494;28;20458;-69
2023/11/10 10:43:26;;;;;;;1.60;0.90;;;21.40;58.30;;;;;;5030817;28;20414;-69
2023/11/10 10:45:52;;;;;;;2.93;1.10;;;21.50;58.30;;;;;;5030205;28;20433;-70
2023/11/10 10:48:18;;;;;;;2.20;1.00;;;21.50;58.30;;;;;;5030505;28;20418;-69
2023/11/10 10:50:45;;;;;;;1.80;1.03;;;21.40;58.30;;;;;;5030708;28;20426;-69
2023/11/10 10:53:14;;;;;;;1.40;0.90;;;21.50;58.40;;;;;;5030468;28;20422;-70
2023/11/10 10:55:43;;;;;;;1.10;0.70;;;21.40;58.30;;;;;;5030831;28;20865;-69
2023/11/10 10:58:08;;;;;;;1.17;1.00;;;21.40;58.30;;;;;;5030946;28;20437;-69
2023/11/10 11:00:37;;;;;;;1.77;1.00;;;21.40;58.30;;;;;;5030526;28;20450;-69
2023/11/10 11:03:31;;;;;;;1.23;0.90;;;21.40;58.30;;;;;;5031102;28;20600;-69
2023/11/10 11:06:28;;;;;;;1.17;0.90;;;21.40;58.30;;;;;;5029096;28;20449;-70
2023/11/10 11:09:20;;;;;;;1.57;0.90;;;21.50;58.40;;;;;;5030470;28;20862;-70
2023/11/10 11:12:22;;;;;;;1.73;0.90;;;21.40;58.40;;;;;;5031639;28;20417;-69
2023/11/10 11:15:03;;;;;;;1.53;1.10;;;21.40;58.40;;;;;;5033090;28;20398;-68
2023/11/10 11:18:07;;;;;;;1.97;1.20;;;21.40;58.40;;;;;;5034126;28;20949;-69
2023/11/10 11:20:34;;;;;;;1.60;0.90;;;21.40;58.40;;;;;;5027868;28;21059;-69
2023/11/10 11:23:01;;;;;;;1.80;1.23;;;21.40;58.40;;;;;;5034443;28;20464;-69
2023/11/10 11:25:27;;;;;;;1.30;0.90;;;21.40;58.40;;;;;;5034287;28;20429;-74
2023/11/10 11:27:59;;;;;;;1.83;1.00;;;21.40;58.40;;;;;;5032522;28;20472;-69
2023/11/10 11:30:36;;;;;;;1.80;1.20;;;21.40;58.30;;;;;;5033866;28;20501;-70
2023/11/10 11:33:07;;;;;;;1.30;0.90;;;21.40;58.30;;;;;;5034426;28;20418;-69
2023/11/10 11:35:46;;;;;;;1.27;0.97;;;21.40;58.30;;;;;;5033824;28;20465;-69
2023/11/10 11:38:25;;;;;;;1.10;0.90;;;21.50;58.30;;;;;;5033881;28;20487;-70
2023/11/10 11:40:51;;;;;;;2.47;1.00;;;21.40;58.30;;;;;;5034115;28;20480;-69
2023/11/10 11:43:23;;;;;;;1.20;1.00;;;21.40;58.30;;;;;;5033693;28;20411;-69
2023/11/10 11:45:49;;;;;;;2.03;0.90;;;21.40;58.30;;;;;;5031922;28;20817;-70
2023/11/10 11:48:15;;;;;;;3.53;1.07;;;21.40;58.20;;;;;;5033319;28;20842;-69
2023/11/10 11:50:41;;;;;;;2.10;1.00;;;21.40;58.20;;;;;;5033446;28;20422;-70
2023/11/10 11:53:07;;;;;;;2.13;1.53;;;21.40;58.10;;;;;;5033384;28;20418;-69
2023/11/10 11:55:34;;;;;;;3.23;1.00;;;21.40;58.20;;;;;;5033680;28;20219;-69
2023/11/10 11:58:01;;;;;;;1.30;1.10;;;21.40;58.20;;;;;;5033423;28;20407;-69
2023/11/10 12:00:28;;;;;;;2.30;1.60;;;21.40;58.20;;;;;;5033542;28;20457;-67
2023/11/10 12:02:55;;;;;;;2.00;1.03;;;21.40;58.20;;;;;;5033584;28;20563;-70
2023/11/10 12:05:21;;;;;;;1.73;0.97;;;21.40;58.20;;;;;;5033098;28;20430;-68
2023/11/10 12:07:48;;;;;;;2.50;0.80;;;21.40;58.20;;;;;;5033233;28;20402;-70
2023/11/10 12:10:14;;;;;;;2.60;1.00;;;21.40;58.20;;;;;;5033249;28;20489;-69
2023/11/10 12:12:40;;;;;;;2.53;1.40;;;21.40;58.20;;;;;;5033211;28;20513;-70
2023/11/10 12:15:08;;;;;;;2.27;1.13;;;21.40;58.20;;;;;;5033092;28;21153;-69
2023/11/10 12:17:35;;;;;;;1.83;1.10;;;21.40;58.20;;;;;;5033151;28;20475;-70
2023/11/10 12:20:00;;;;;;;2.03;1.00;;;21.40;58.20;;;;;;5033360;28;20519;-70
2023/11/10 12:22:26;;;;;;;1.10;1.00;;;21.40;58.20;;;;;;5031497;28;20418;-70
2023/11/10 12:24:59;;;;;;;2.40;1.00;;;21.40;58.20;;;;;;5032315;28;20172;-71
2023/11/10 12:27:24;;;;;;;3.03;1.03;;;21.40;58.20;;;;;;5032512;28;20225;-68
2023/11/10 12:29:50;;;;;;;1.23;1.00;;;21.40;58.20;;;;;;5032956;28;20906;-70
2023/11/10 12:32:16;;;;;;;1.23;0.93;;;21.40;58.20;;;;;;5032837;28;20178;-70
2023/11/10 12:34:43;;;;;;;1.53;0.90;;;21.40;58.20;;;;;;5031168;28;20191;-69
2023/11/10 12:37:12;;;;;;;1.03;0.90;;;21.40;58.20;;;;;;5032548;28;20641;-70
2023/11/10 12:39:38;;;;;;;1.23;0.90;;;21.40;58.30;;;;;;5031144;28;20991;-69
2023/11/10 12:42:06;;;;;;;2.73;1.23;;;21.40;58.30;;;;;;5032516;28;20544;-69
2023/11/10 12:44:32;;;;;;;2.67;0.90;;;21.40;58.30;;;;;;5032712;28;20186;-69
2023/11/10 12:47:00;;;;;;;3.23;1.20;;;21.40;58.30;;;;;;5032299;28;20925;-70